»·PEaware :: N148WT KGCN-KIFP

N148WT :: KGCN-KIFP

FLIGHT INFORMATION

Flight Status: Arrived
Operator: Privately registered:
United States
More flights under this callsign
Pilot: Vlad D. (11271)
Aircraft: Unknown
(B60T)
More flights by this aircraft type
Origin: KGCN Grand Canyon Natl Park
United States
Destination: KIFP Laughlin/Bullhead Intl
United States
More flights between these airports :: More routes between these airports
Route: +PARKS2 PGS EED
File this flight plan on PilotEdge
Remarks:
Altitude:
(Current/Filed)
14,000ft
Speed:
(Current/Filed)
250kts
Departed: 24-May-16 10:53 AM
Arrived: 24-May-16 11:33 AM
Distance/Time
Traveled:
127nm/0:40
Distance/Time
To Go:
Arrived

Flight Plot

Page will automatically refresh every two minutes.


Map Options




Map Legend


Flown Route
Filed Route
Departure Airport
Arrival Airport
Navaid (VOR, NDB)
Fix

Horizontal Profiles

Position Reports

Time Latitude Longitude Heading Altitude Ground
Speed
24-May-16 10:30 35.959023 -112.137822 219 6612ft 0kts
24-May-16 10:31 35.959023 -112.137822 219 6612ft 0kts
24-May-16 10:32 35.959023 -112.137823 219 6612ft 0kts
24-May-16 10:33 35.959023 -112.137823 219 6612ft 0kts
24-May-16 10:34 35.959021 -112.137824 219 6612ft 0kts
24-May-16 10:35 35.959019 -112.137826 219 6612ft 0kts
24-May-16 10:36 35.959017 -112.137828 219 6612ft 0kts
24-May-16 10:37 35.959015 -112.137830 219 6612ft 0kts
24-May-16 10:38 35.959013 -112.137833 219 6612ft 0kts
24-May-16 10:39 35.959011 -112.137835 219 6612ft 0kts
24-May-16 10:40 35.959009 -112.137837 219 6612ft 0kts
24-May-16 10:41 35.959007 -112.137839 219 6612ft 0kts
24-May-16 10:42 35.959004 -112.137841 219 6612ft 0kts
24-May-16 10:43 35.959002 -112.137843 219 6612ft 0kts
24-May-16 10:44 35.959000 -112.137846 219 6612ft 0kts
24-May-16 10:45 35.958998 -112.137848 219 6612ft 0kts
24-May-16 10:46 35.959728 -112.137460 37 6612ft 6kts
24-May-16 10:47 35.961109 -112.136347 308 6612ft 2kts
24-May-16 10:48 35.961130 -112.136377 309 6612ft 0kts
24-May-16 10:49 35.961130 -112.136378 309 6612ft 0kts
24-May-16 10:50 35.961527 -112.137268 221 6612ft 0kts
24-May-16 10:51 35.943544 -112.155902 219 7024ft 151kts
24-May-16 10:52 35.909744 -112.199575 266 8524ft 175kts
24-May-16 10:53 35.915563 -112.246214 274 9988ft 157kts
24-May-16 10:54 35.906692 -112.301912 250 11862ft 176kts
24-May-16 10:55 35.889684 -112.362047 252 13433ft 194kts
24-May-16 10:56 35.874461 -112.431242 256 13971ft 218kts
24-May-16 10:57 35.863538 -112.506601 259 14000ft 228kts
24-May-16 10:58 35.849420 -112.583540 255 14000ft 230kts
24-May-16 10:59 35.831608 -112.660675 253 14000ft 235kts
24-May-16 11:00 35.812861 -112.738141 253 14000ft 235kts
24-May-16 11:01 35.794492 -112.815805 253 14000ft 235kts
24-May-16 11:02 35.776455 -112.893307 253 13999ft 235kts
24-May-16 11:03 35.758383 -112.971050 253 14000ft 235kts
24-May-16 11:04 35.740293 -113.048770 253 14000ft 235kts
24-May-16 11:05 35.722253 -113.126231 253 14000ft 235kts
24-May-16 11:06 35.704154 -113.203915 253 14000ft 235kts
24-May-16 11:07 35.686049 -113.281585 253 14000ft 235kts
24-May-16 11:08 35.667941 -113.359235 253 14000ft 235kts
24-May-16 11:09 35.649948 -113.436341 253 14000ft 235kts
24-May-16 11:10 35.631848 -113.513872 253 13999ft 235kts
24-May-16 11:11 35.592704 -113.575859 215 14001ft 235kts
24-May-16 11:12 35.538762 -113.621904 215 13999ft 235kts
24-May-16 11:13 35.487934 -113.672540 221 14000ft 235kts
24-May-16 11:14 35.439772 -113.727364 223 14000ft 235kts
24-May-16 11:15 35.392602 -113.782291 222 14000ft 235kts
24-May-16 11:16 35.344044 -113.837361 222 14000ft 235kts
24-May-16 11:17 35.295508 -113.891231 221 13999ft 235kts
24-May-16 11:18 35.272611 -113.965009 256 13352ft 233kts
24-May-16 11:19 35.257639 -114.037836 256 11875ft 214kts
24-May-16 11:20 35.244594 -114.106421 256 11135ft 200kts
24-May-16 11:21 35.231984 -114.172861 256 11128ft 198kts
24-May-16 11:22 35.220246 -114.234437 256 10450ft 171kts
24-May-16 11:23 35.213214 -114.293121 266 8807ft 166kts
24-May-16 11:24 35.212612 -114.349060 271 7280ft 163kts
24-May-16 11:25 35.214279 -114.402767 271 5856ft 135kts
24-May-16 11:26 35.214082 -114.447271 268 4326ft 133kts
24-May-16 11:27 35.212479 -114.493423 266 3023ft 124kts
24-May-16 11:28 35.209595 -114.535806 258 2007ft 125kts
24-May-16 11:29 35.187965 -114.561746 182 1102ft 109kts
24-May-16 11:30 35.160646 -114.559784 175 644ft 74kts
24-May-16 11:31 35.155897 -114.558914 97 644ft 7kts
24-May-16 11:32 35.155901 -114.558418 86 644ft 1kts
24-May-16 11:33 35.158222 -114.558274 355 644ft 11kts
24-May-16 11:34 35.159655 -114.556783 2 644ft 6kts
24-May-16 11:35 35.159771 -114.556625 90 644ft 0kts
24-May-16 11:36 35.159771 -114.556623 90 644ft 0kts

Navigation Log

Ident Type
Flight plan parsing failed, navigation log unavailable